Latest Weather Observations for East Sale

IDV60801

Issued at 11:02 am EDT Friday 27 February 2015 (issued every 30 minutes, with the page automatically refreshed every 10 minutes)

About weather observations | Map of weather stations | Latest weather observations for VIC | Other Formats
Station Details ID: 085072 Name: EAST SALE AIRPORT Lat: -38.12 Lon: 147.13 Height: 4.6 m
Data from the previous 72 hours. | See also: Recent months at East Sale
Date/Time
EDT
Temp
°C
App
Temp
°C
Dew
Point
Rel
Hum
%
Delta-T
°C
Wind Press
QNH
hPa
Press
MSL
hPa
Rain
since 9 am
mm
Dir
 
Spd
km/h
Gust
km/h
Spd
kts
Gust
kts
27/10:30am 19.9 19.7 14.7 72 3.0 WNW 9 11 5 6 1011.5 1011.5 0.0
27/10:00am 18.7 19.1 15.4 81 1.9 W 7 11 4 6 1011.4 1011.4 0.0
27/09:00am 16.4 16.7 15.1 92 0.8 SW 7 9 4 5 1011.2 1011.2 0.0
27/08:30am 15.8 16.0 14.8 94 0.6 WSW 7 9 4 5 1011.2 1011.2 0.0
27/08:00am 15.6 16.7 14.6 94 0.6 WSW 2 7 1 4 1010.8 1010.8 0.0
27/07:30am 15.6 16.0 14.8 95 0.5 WSW 6 7 3 4 1010.9 1010.9 0.0
27/07:00am 15.2 15.0 14.6 96 0.3 S 9 11 5 6 1010.4 1010.4 0.0
27/06:30am 15.1 14.5 14.6 97 0.3 S 11 13 6 7 1010.3 1010.3 0.0
27/06:00am 14.5 14.1 14.2 98 0.2 SSW 9 11 5 6 1010.1 1010.1 0.0
27/05:30am 14.0 13.1 13.7 98 0.2 SSW 11 11 6 6 1010.1 1010.1 0.0
27/05:12am 13.5 13.2 13.2 98 0.2 SSW 7 7 4 4 1010.1 1010.1 0.0
27/05:00am 12.2 11.6 11.7 97 0.3 SW 6 7 3 4 1010.1 1010.1 0.0
27/04:52am 12.0 11.7 11.4 96 0.3 SW 4 6 2 3 1010.1 1010.1 0.0
27/04:30am 12.0 12.4 11.4 96 0.3 CALM 0 0 0 0 1010.2 1010.2 0.0
27/04:00am 12.7 12.2 12.2 97 0.3 WNW 6 7 3 4 1010.3 1010.3 0.0
27/03:30am 13.6 13.4 13.0 96 0.3 SSE 6 7 3 4 1010.3 1010.3 0.0
27/03:00am 13.7 13.9 13.1 96 0.3 E 4 7 2 4 1010.8 1010.8 0.0
27/02:30am 13.9 13.8 13.3 96 0.3 E 6 6 3 3 1011.1 1011.1 0.0
27/02:00am 13.9 14.1 13.1 95 0.4 E 4 6 2 3 1011.3 1011.3 0.0
27/01:30am 14.2 15.2 13.2 94 0.6 CALM 0 0 0 0 1011.5 1011.5 0.0
27/01:00am 14.3 15.3 13.3 94 0.6 CALM 0 0 0 0 1011.8 1011.8 0.0
27/12:30am 14.9 16.0 13.6 92 0.7 CALM 0 6 0 3 1011.8 1011.8 0.0
27/12:00am 15.9 16.3 14.8 93 0.6 SE 6 11 3 6 1011.7 1011.7 0.0
 
Date/Time
EDT
Temp
°C
App
Temp
°C
Dew
Point
Rel
Hum
%
Delta-T
°C
Wind Press
QNH
hPa
Press
MSL
hPa
Rain
since 9 am
mm
Dir
 
Spd
km/h
Gust
km/h
Spd
kts
Gust
kts
26/11:30pm 14.9 14.8 13.8 93 0.6 ENE 7 7 4 4 1011.7 1011.7 0.0
26/11:00pm 15.3 14.9 14.2 93 0.6 E 9 9 5 5 1011.9 1011.9 0.0
26/10:30pm 15.9 15.2 14.3 90 0.9 ENE 11 11 6 6 1011.9 1011.9 0.0
26/10:00pm 16.3 16.1 14.7 90 0.9 E 9 13 5 7 1011.7 1011.7 0.0
26/09:30pm 17.2 16.7 14.8 86 1.4 ENE 11 13 6 7 1011.5 1011.5 0.0
26/09:00pm 18.0 18.4 15.3 84 1.6 ENE 7 7 4 4 1011.0 1011.0 0.0
26/08:30pm 18.5 18.6 15.4 82 1.8 SE 9 13 5 7 1010.6 1010.6 0.0
26/08:00pm 18.9 18.6 15.4 80 2.1 SE 11 17 6 9 1010.1 1010.1 0.0
26/07:30pm 19.6 18.4 16.1 80 2.1 SSE 17 20 9 11 1009.5 1009.5 0.0
26/07:00pm 20.5 19.3 16.1 76 2.6 SSE 17 22 9 12 1009.1 1009.1 0.0
26/06:30pm 21.5 20.6 16.9 75 2.8 SSE 17 24 9 13 1008.9 1008.9 0.0
26/06:00pm 21.8 20.8 16.5 72 3.2 SSE 17 22 9 12 1008.6 1008.6 0.0
26/05:30pm 21.9 20.5 16.6 72 3.2 SSE 19 26 10 14 1008.7 1008.7 0.0
26/05:00pm 23.1 21.6 16.2 65 4.2 SW 19 26 10 14 1008.7 1008.7 0.0
26/04:30pm 23.2 20.6 15.0 60 4.9 W 22 33 12 18 1008.5 1008.5 0.0
26/04:00pm 23.7 21.0 15.7 61 4.8 W 24 33 13 18 1008.5 1008.5 0.0
26/03:30pm 23.9 21.7 14.9 57 5.4 W 20 32 11 17 1008.6 1008.6 0.0
26/03:00pm 23.9 21.2 14.6 56 5.5 WSW 22 35 12 19 1008.6 1008.6 0.0
26/02:30pm 23.7 22.1 14.9 57 5.2 WSW 17 26 9 14 1008.8 1008.8 0.0
26/02:00pm 24.6 20.8 14.7 54 5.9 W 28 37 15 20 1008.8 1008.8 0.0
26/01:30pm 24.6 21.8 16.3 60 5.1 WSW 26 39 14 21 1009.0 1009.0 0.0
26/01:00pm 24.1 20.4 16.1 61 4.9 WSW 30 39 16 21 1009.0 1009.0 0.0
26/12:30pm 23.5 21.4 16.1 63 4.5 WSW 22 35 12 19 1009.2 1009.2 0.0
26/12:00pm 22.7 19.4 16.0 66 4.1 WSW 28 41 15 22 1009.5 1009.5 0.0
26/11:30am 20.9 16.6 15.4 71 3.3 WSW 32 43 17 23 1009.8 1009.8 0.0
26/11:00am 20.8 17.3 15.6 72 3.1 W 28 35 15 19 1009.8 1009.8 0.0
26/10:30am 19.3 15.4 15.6 79 2.2 W 30 41 16 22 1009.6 1009.6 0.0
26/10:00am 18.6 15.5 15.5 82 1.8 W 26 33 14 18 1009.5 1009.5 0.0
26/09:30am 18.0 14.7 15.1 83 1.7 W 26 37 14 20 1009.3 1009.3 0.0
26/09:00am 17.5 14.2 15.0 85 1.5 W 26 35 14 19 1009.3 1009.3 0.0
26/08:30am 17.3 15.1 14.9 86 1.4 W 20 30 11 16 1008.8 1008.8 0.0
26/08:00am 15.8 13.6 14.3 91 0.9 WSW 19 26 10 14 1008.7 1008.7 0.0
26/07:30am 15.6 14.5 14.3 92 0.7 WNW 13 17 7 9 1008.6 1008.6 0.0
26/07:00am 15.4 15.1 14.4 94 0.6 WNW 9 13 5 7 1008.4 1008.4 0.0
26/06:30am 14.4 13.1 13.8 96 0.3 W 13 19 7 10 1008.2 1008.2 0.0
26/06:00am 14.3 13.0 13.7 96 0.3 WNW 13 15 7 8 1008.0 1008.0 0.0
26/05:30am 13.9 12.9 13.4 97 0.3 WNW 11 11 6 6 1007.9 1007.9 0.0
26/05:00am 13.3 12.4 12.7 96 0.3 WNW 9 11 5 6 1008.0 1008.0 0.0
26/04:30am 13.4 12.2 12.8 96 0.3 WNW 11 13 6 7 1008.0 1008.0 0.0
26/04:00am 13.9 13.6 13.4 97 0.3 NW 7 7 4 4 1008.1 1008.1 0.0
26/03:56am 13.8 13.7 13.3 97 0.3 NW 6 7 3 4 1008.0 1008.0 0.0
26/03:37am 14.1 13.5 13.6 97 0.3 NNW 9 11 5 6 1008.1 1008.1 0.0
26/03:30am 14.0 13.9 13.4 96 0.3 NNW 6 11 3 6 1008.4 1008.4 0.0
26/03:00am 14.2 15.3 13.4 95 0.4 CALM 0 0 0 0 1008.7 1008.7 0.0
26/02:30am 14.8 16.1 14.0 95 0.4 CALM 0 0 0 0 1009.1 1009.1 0.0
26/02:00am 14.9 14.8 13.9 94 0.6 N 7 7 4 4 1009.5 1009.5 0.0
26/01:30am 15.7 15.8 14.4 92 0.7 NNE 7 7 4 4 1009.8 1009.8 0.0
26/01:00am 15.8 16.0 14.3 91 0.9 E 6 7 3 4 1009.9 1009.9 0.0
26/12:30am 16.6 16.9 14.6 88 1.1 ESE 6 7 3 4 1010.6 1010.6 0.0
26/12:00am 17.2 17.4 14.8 86 1.4 ENE 7 11 4 6 1011.1 1011.1 0.0
 
Date/Time
EDT
Temp
°C
App
Temp
°C
Dew
Point
Rel
Hum
%
Delta-T
°C
Wind Press
QNH
hPa
Press
MSL
hPa
Rain
since 9 am
mm
Dir
 
Spd
km/h
Gust
km/h
Spd
kts
Gust
kts
25/11:30pm 17.3 16.8 14.8 85 1.4 ENE 11 15 6 8 1011.2 1011.2 0.0
25/11:00pm 17.8 16.2 14.9 83 1.7 ENE 17 22 9 12 1011.4 1011.4 0.0
25/10:30pm 18.2 16.6 14.9 81 1.9 ENE 17 22 9 12 1011.8 1011.8 0.0
25/10:00pm 18.2 15.9 14.7 80 2.0 ENE 20 26 11 14 1012.0 1012.0 0.0
25/09:30pm 18.2 15.8 14.5 79 2.1 E 20 26 11 14 1012.3 1012.3 0.0
25/09:00pm 18.4 15.2 14.3 77 2.4 E 24 28 13 15 1012.5 1012.5 0.0
25/08:30pm 18.3 14.9 13.8 75 2.6 E 24 32 13 17 1012.4 1012.4 0.0
25/08:00pm 18.6 15.1 13.5 72 2.9 E 24 32 13 17 1012.5 1012.5 0.0
25/07:30pm 19.2 15.8 13.8 71 3.1 E 24 32 13 17 1012.8 1012.8 0.0
25/07:00pm 20.0 16.0 14.1 69 3.4 E 28 35 15 19 1012.7 1012.7 0.0
25/06:30pm 20.7 15.7 14.1 66 3.8 E 33 41 18 22 1012.8 1012.8 0.0
25/06:00pm 21.2 16.4 14.6 66 3.9 E 33 43 18 23 1013.2 1013.2 0.0
25/05:30pm 21.5 16.6 14.4 64 4.2 E 33 43 18 23 1013.4 1013.4 0.0
25/05:00pm 21.3 15.8 13.7 62 4.4 E 35 44 19 24 1013.7 1013.7 0.0
25/04:30pm 21.9 16.5 14.0 61 4.6 E 35 44 19 24 1014.0 1014.0 0.0
25/04:00pm 21.9 16.5 14.0 61 4.6 E 35 43 19 23 1014.5 1014.5 0.0
25/03:30pm 21.4 15.2 13.8 62 4.4 E 39 48 21 26 1015.0 1015.0 0.0
25/03:00pm 22.1 16.3 14.0 60 4.7 E 37 48 20 26 1015.6 1015.6 0.0
25/02:30pm 22.2 16.2 14.3 61 4.6 E 39 46 21 25 1016.1 1016.1 0.0
25/02:00pm 21.6 15.1 14.0 62 4.4 E 41 48 22 26 1016.3 1016.3 0.0
25/01:30pm 21.9 15.4 13.0 57 5.1 E 39 52 21 28 1016.5 1016.5 0.0
25/01:00pm 21.4 14.9 12.8 58 4.9 E 39 52 21 28 1016.9 1016.9 0.0
25/12:30pm 21.9 15.7 12.5 55 5.3 E 37 48 20 26 1017.3 1017.3 0.0
25/12:00pm 20.9 15.0 13.6 63 4.2 E 37 46 20 25 1017.7 1017.7 0.0
25/11:30am 20.8 14.3 13.0 61 4.4 E 39 48 21 26 1018.2 1018.2 0.0
25/11:00am 20.1 14.5 13.3 65 3.9 ENE 35 46 19 25 1018.2 1018.2 0.0
25/10:30am 19.7 14.6 13.2 66 3.7 E 32 43 17 23 1018.4 1018.4 0.0
25/10:00am 19.5 14.4 13.7 69 3.3 E 33 43 18 23 1018.4 1018.4 0.0
25/09:30am 19.0 13.9 13.2 69 3.3 ENE 32 41 17 22 1018.7 1018.7 0.0
25/09:00am 18.8 14.5 13.2 70 3.2 ENE 28 35 15 19 1018.5 1018.5 2.4
25/08:30am 18.5 13.6 12.7 69 3.2 E 30 37 16 20 1018.6 1018.6 2.4
25/08:00am 18.1 13.2 12.5 70 3.1 E 30 41 16 22 1018.6 1018.6 2.4
25/07:30am 18.1 13.2 12.5 70 3.1 E 30 39 16 21 1018.3 1018.3 2.4
25/07:00am 17.9 13.1 12.8 72 2.8 E 30 37 16 20 1018.3 1018.3 2.4
25/06:30am 17.7 12.4 13.2 75 2.5 E 33 41 18 22 1018.1 1018.1 2.4
25/06:00am 17.6 12.6 13.3 76 2.4 E 32 43 17 23 1017.9 1017.9 2.4
25/05:30am 17.5 12.6 13.8 79 2.1 E 32 39 17 21 1017.9 1017.9 2.4
25/05:00am 17.5 13.4 13.8 79 2.1 E 28 35 15 19 1017.7 1017.7 2.4
25/04:30am 17.3 15.0 14.2 82 1.8 ENE 19 26 10 14 1017.7 1017.7 2.4
25/04:00am 17.4 16.2 13.9 80 2.0 NE 13 15 7 8 1018.0 1018.0 2.4
25/03:30am 16.7 15.7 14.5 87 1.3 NE 13 17 7 9 1018.1 1018.1 2.4
25/03:00am 16.3 15.3 14.5 89 1.0 NE 13 17 7 9 1018.4 1018.4 2.4
25/02:30am 16.3 14.5 14.5 89 1.0 NE 17 22 9 12 1018.8 1018.8 2.4
25/02:00am 16.2 14.0 14.4 89 1.0 ENE 19 24 10 13 1019.0 1019.0 2.4
25/01:30am 16.1 14.0 14.8 92 0.7 ENE 19 24 10 13 1019.1 1019.1 2.4
25/01:00am 16.2 14.3 15.1 93 0.6 ENE 19 22 10 12 1019.3 1019.3 2.4
25/12:30am 15.9 13.8 14.8 93 0.6 ENE 19 22 10 12 1019.8 1019.8 2.4
25/12:00am 15.3 14.7 14.5 95 0.5 NE 11 15 6 8 1020.3 1020.3 2.4
 
Date/Time
EDT
Temp
°C
App
Temp
°C
Dew
Point
Rel
Hum
%
Delta-T
°C
Wind Press
QNH
hPa
Press
MSL
hPa
Rain
since 9 am
mm
Dir
 
Spd
km/h
Gust
km/h
Spd
kts
Gust
kts
24/11:42pm 15.3 14.3 14.5 95 0.5 NE 13 17 7 9 1020.4 1020.4 2.2
24/11:34pm 15.3 14.3 14.7 96 0.3 NE 13 17 7 9 1020.6 1020.6 2.2
24/11:30pm 15.4 14.9 14.9 97 0.3 NE 11 17 6 9 1020.7 1020.7 2.2
24/11:00pm 15.1 14.1 14.6 97 0.3 NE 13 17 7 9 1020.8 1020.8 1.8
24/10:30pm 15.1 13.7 14.5 96 0.3 NE 15 20 8 11 1021.1 1021.1 1.0
24/10:00pm 15.5 13.8 14.7 95 0.5 NE 17 20 9 11 1021.2 1021.2 0.6
24/09:59pm 15.5 13.7 14.5 94 0.6 NE 17 20 9 11 1021.2 1021.2 0.6
24/09:42pm 15.6 13.9 14.6 94 0.6 ENE 17 20 9 11 1021.0 1021.0 0.4
24/09:30pm 15.5 13.4 14.7 95 0.5 ENE 19 24 10 13 1020.9 1020.9 0.4
24/09:11pm 15.5 13.3 14.5 94 0.6 E 19 22 10 12 1020.9 1020.9 0.4
24/09:00pm 15.7 13.4 14.6 93 0.6 E 20 26 11 14 1020.8 1020.8 0.2
24/08:51pm 16.1 14.2 15.1 94 0.6 E 19 22 10 12 1020.8 1020.8 0.0
24/08:40pm 16.3 13.3 14.8 91 0.9 ESE 24 30 13 16 1020.7 1020.7 0.0
24/08:30pm 17.2 13.8 13.7 80 2.0 ESE 24 30 13 16 1020.3 1020.3 0.0
24/08:00pm 17.6 14.0 13.1 75 2.5 ESE 24 32 13 17 1020.0 1020.0 0.0
24/07:30pm 18.1 15.6 13.6 75 2.6 ESE 19 24 10 13 1019.9 1019.9 0.0
24/07:00pm 18.5 15.2 11.6 64 3.8 ESE 20 26 11 14 1019.9 1019.9 0.0
24/06:30pm 18.9 15.3 11.9 64 3.9 ESE 22 28 12 15 1019.7 1019.7 0.0
24/06:00pm 20.3 17.1 11.8 58 4.7 E 20 26 11 14 1019.7 1019.7 0.0
24/05:30pm 20.7 17.7 10.5 52 5.5 ENE 17 24 9 13 1019.5 1019.5 0.0
24/05:00pm 21.0 18.3 10.5 51 5.7 ESE 15 24 8 13 1019.3 1019.3 0.0
24/04:30pm 21.2 17.9 11.0 52 5.6 SE 19 28 10 15 1019.2 1019.2 0.0
24/04:00pm 21.2 18.0 9.8 48 6.1 ESE 17 26 9 14 1019.3 1019.3 0.0
24/03:30pm 21.3 19.6 11.3 53 5.5 ESE 11 17 6 9 1019.3 1019.3 0.0
24/03:00pm 20.7 17.9 8.7 46 6.3 S 13 20 7 11 1019.6 1019.6 0.0
24/02:30pm 20.9 19.0 8.9 46 6.3 SW 9 13 5 7 1019.8 1019.8 0.0
24/02:00pm 20.2 18.3 9.2 49 5.8 NNW 9 17 5 9 1020.0 1020.0 0.0
24/01:30pm 19.6 17.3 8.9 50 5.6 NNW 11 20 6 11 1020.1 1020.1 0.0
24/01:00pm 19.0 16.9 8.1 49 5.6 NNW 9 19 5 10 1020.3 1020.3 0.0
24/12:30pm 18.1 16.0 8.1 52 5.1 N 9 15 5 8 1020.8 1020.8 0.0
24/12:00pm 18.8 17.8 10.9 60 4.3 NW 7 13 4 7 1021.1 1021.1 0.0
24/11:30am 17.3 15.9 8.7 57 4.4 WSW 6 11 3 6 1021.2 1021.2 0.0

Other Formats:

Comma delimited format used in spreadsheet applications
http://www.bom.gov.au/fwo/IDV60801/IDV60801.94907.axf

JavaScript Object Notation format (JSON) in row-major order
http://www.bom.gov.au/fwo/IDV60801/IDV60801.94907.json